createdAt,value
2018-07-28T00:00:54.956Z,933.90
2018-07-28T00:01:54.939Z,933.94
2018-07-28T00:02:54.945Z,933.91
2018-07-28T00:03:54.979Z,933.87
2018-07-28T00:04:55.138Z,933.88
2018-07-28T00:05:54.992Z,933.87
2018-07-28T00:06:55.017Z,933.86
2018-07-28T00:07:55.133Z,933.88
2018-07-28T00:08:55.073Z,933.87
2018-07-28T00:09:55.192Z,933.89
2018-07-28T00:10:55.094Z,933.89
2018-07-28T00:11:55.184Z,933.87
2018-07-28T00:12:55.088Z,933.89
2018-07-28T00:13:55.106Z,933.93
2018-07-28T00:14:55.298Z,933.95
2018-07-28T00:15:55.122Z,933.97
2018-07-28T00:16:55.131Z,933.98
2018-07-28T00:17:55.147Z,933.94
2018-07-28T00:18:55.285Z,933.96
2018-07-28T00:19:55.345Z,933.98
2018-07-28T00:20:55.205Z,933.95
2018-07-28T00:21:55.212Z,933.96
2018-07-28T00:22:55.227Z,933.99
2018-07-28T00:23:55.253Z,933.97
2018-07-28T00:24:55.470Z,933.92
2018-07-28T00:25:55.377Z,933.98
2018-07-28T00:26:55.273Z,933.98
2018-07-28T00:27:55.403Z,934.02
2018-07-28T00:28:55.298Z,934.04
2018-07-28T00:29:55.451Z,934.09
2018-07-28T00:30:55.448Z,934.11
2018-07-28T00:31:55.336Z,934.11
2018-07-28T00:32:55.357Z,934.15
2018-07-28T00:33:55.382Z,934.13
2018-07-28T00:34:55.428Z,934.16
2018-07-28T00:35:55.387Z,934.18
2018-07-28T00:36:55.451Z,934.13
2018-07-28T00:37:55.463Z,934.17
2018-07-28T00:38:55.427Z,934.20
2018-07-28T00:39:55.585Z,934.19
2018-07-28T00:40:55.468Z,934.18
2018-07-28T00:41:55.477Z,934.17
2018-07-28T00:42:55.490Z,934.16
2018-07-28T00:43:55.507Z,934.18
2018-07-28T00:44:55.781Z,934.18
2018-07-28T00:45:55.571Z,934.20
2018-07-28T00:46:55.561Z,934.23
2018-07-28T00:47:55.571Z,934.27
2018-07-28T00:48:55.597Z,934.26
2018-07-28T00:49:55.684Z,934.28
2018-07-28T00:50:55.615Z,934.29
2018-07-28T00:51:55.725Z,934.30
2018-07-28T00:52:55.602Z,934.31
2018-07-28T00:53:55.640Z,934.32
2018-07-28T00:54:55.811Z,934.34
2018-07-28T00:55:55.672Z,934.39
2018-07-28T00:56:55.659Z,934.38
2018-07-28T00:57:55.803Z,934.42
2018-07-28T00:58:55.706Z,934.40
2018-07-28T00:59:55.763Z,934.38
2018-07-28T01:00:55.739Z,934.40
2018-07-28T01:01:55.855Z,934.38
2018-07-28T01:02:55.758Z,934.39
2018-07-28T01:03:55.938Z,934.38
2018-07-28T01:04:55.782Z,934.38
2018-07-28T01:05:55.794Z,934.36
2018-07-28T01:06:55.798Z,934.35
2018-07-28T01:07:55.824Z,934.38
2018-07-28T01:08:56.017Z,934.39
2018-07-28T01:09:55.959Z,934.43
2018-07-28T01:10:55.890Z,934.44
2018-07-28T01:11:55.908Z,934.41
2018-07-28T01:12:55.879Z,934.41
2018-07-28T01:13:56.163Z,934.39
2018-07-28T01:14:55.914Z,934.44
2018-07-28T01:15:55.922Z,934.42
2018-07-28T01:16:55.946Z,934.41
2018-07-28T01:17:56.077Z,934.42
2018-07-28T01:18:56.109Z,934.44
2018-07-28T01:19:56.005Z,934.42
2018-07-28T01:20:55.973Z,934.42
2018-07-28T01:21:56.019Z,934.44
2018-07-28T01:22:56.021Z,934.41
2018-07-28T01:23:56.218Z,934.41
2018-07-28T01:24:56.043Z,934.43
2018-07-28T01:25:56.045Z,934.43
2018-07-28T01:26:56.126Z,934.44
2018-07-28T01:27:56.083Z,934.45
2018-07-28T01:28:56.254Z,934.47
2018-07-28T01:29:56.103Z,934.43
2018-07-28T01:30:56.239Z,934.45
2018-07-28T01:31:56.138Z,934.44
2018-07-28T01:32:56.137Z,934.45
2018-07-28T01:33:56.311Z,934.48
2018-07-28T01:34:56.178Z,934.49
2018-07-28T01:35:56.312Z,934.49
2018-07-28T01:36:56.213Z,934.46
2018-07-28T01:37:56.199Z,934.48
2018-07-28T01:38:56.335Z,934.44
2018-07-28T01:39:56.243Z,934.45
2018-07-28T01:40:56.287Z,934.45
2018-07-28T01:41:56.391Z,934.42
2018-07-28T01:42:56.291Z,934.45
2018-07-28T01:43:56.448Z,934.42
2018-07-28T01:44:56.321Z,934.45
2018-07-28T01:45:56.349Z,934.46
2018-07-28T01:46:56.456Z,934.47
2018-07-28T01:47:56.393Z,934.47
2018-07-28T01:48:56.413Z,934.47
2018-07-28T01:49:56.383Z,934.43
2018-07-28T01:50:56.403Z,934.45
2018-07-28T01:51:56.387Z,934.46
2018-07-28T01:52:56.561Z,934.45
2018-07-28T01:53:56.415Z,934.42
2018-07-28T01:54:56.478Z,934.44
2018-07-28T01:55:56.458Z,934.43
2018-07-28T01:56:56.458Z,934.43
2018-07-28T01:57:56.552Z,934.42
2018-07-28T01:58:56.595Z,934.40
2018-07-28T01:59:56.491Z,934.43
2018-07-28T02:00:56.512Z,934.41
2018-07-28T02:01:56.534Z,934.37
2018-07-28T02:02:56.660Z,934.37
2018-07-28T02:03:56.568Z,934.33
2018-07-28T02:04:56.672Z,934.38
2018-07-28T02:05:56.578Z,934.36
2018-07-28T02:07:56.598Z,934.41
2018-07-28T02:08:56.634Z,934.38
2018-07-28T02:09:56.645Z,934.35
2018-07-28T02:10:56.830Z,934.34
2018-07-28T02:11:56.698Z,934.36
2018-07-28T02:12:56.681Z,934.39
2018-07-28T02:13:56.687Z,934.38
2018-07-28T02:14:56.688Z,934.39
2018-07-28T02:15:56.830Z,934.36
2018-07-28T02:16:56.823Z,934.39
2018-07-28T02:17:56.733Z,934.40
2018-07-28T02:18:56.752Z,934.41
2018-07-28T02:19:56.757Z,934.44
2018-07-28T02:20:56.762Z,934.44
2018-07-28T02:21:56.796Z,934.44
2018-07-28T02:22:57.065Z,934.47
2018-07-28T02:23:56.811Z,934.42
2018-07-28T02:24:56.871Z,934.39
2018-07-28T02:25:56.830Z,934.42
2018-07-28T02:26:56.836Z,934.38
2018-07-28T02:27:56.847Z,934.37
2018-07-28T02:28:57.100Z,934.33
2018-07-28T02:29:56.880Z,934.40
2018-07-28T02:30:56.893Z,934.42
2018-07-28T02:31:57.033Z,934.39
2018-07-28T02:32:56.921Z,934.38
2018-07-28T02:33:57.205Z,934.36
2018-07-28T02:34:57.007Z,934.34
2018-07-28T02:35:56.968Z,934.37
2018-07-28T02:36:56.981Z,934.34
2018-07-28T02:37:57.105Z,934.33
2018-07-28T02:38:57.058Z,934.32
2018-07-28T02:39:57.075Z,934.33
2018-07-28T02:40:57.026Z,934.31
2018-07-28T02:41:57.034Z,934.30
2018-07-28T02:42:57.176Z,934.35
2018-07-28T02:43:57.213Z,934.35
2018-07-28T02:44:57.069Z,934.32
2018-07-28T02:45:57.092Z,934.35
2018-07-28T02:46:57.104Z,934.36
2018-07-28T02:47:57.098Z,934.36
2018-07-28T02:48:57.346Z,934.33
2018-07-28T02:49:57.136Z,934.31
2018-07-28T02:50:57.162Z,934.30
2018-07-28T02:51:57.161Z,934.32
2018-07-28T02:52:57.295Z,934.27
2018-07-28T02:53:57.438Z,934.29
2018-07-28T02:54:57.200Z,934.27
2018-07-28T02:55:57.221Z,934.29
2018-07-28T02:56:57.223Z,934.28
2018-07-28T02:57:57.232Z,934.28
2018-07-28T02:58:57.366Z,934.23
2018-07-28T02:59:57.268Z,934.20
2018-07-28T03:00:57.292Z,934.19
2018-07-28T03:01:57.294Z,934.15
2018-07-28T03:02:57.302Z,934.14
2018-07-28T03:03:57.448Z,934.13
2018-07-28T03:04:57.319Z,934.11
2018-07-28T03:05:57.329Z,934.10
2018-07-28T03:06:57.352Z,934.09
2018-07-28T03:07:57.351Z,934.12
2018-07-28T03:08:57.465Z,934.09
2018-07-28T03:09:57.475Z,934.07
2018-07-28T03:10:57.393Z,934.07
2018-07-28T03:11:57.419Z,934.07
2018-07-28T03:12:57.428Z,934.08
2018-07-28T03:13:57.557Z,934.04
2018-07-28T03:14:57.549Z,934.04
2018-07-28T03:15:57.462Z,934.01
2018-07-28T03:16:57.479Z,933.97
2018-07-28T03:17:57.608Z,934.00
2018-07-28T03:18:57.506Z,933.95
2018-07-28T03:19:57.605Z,933.96
2018-07-28T03:20:57.568Z,933.97
2018-07-28T03:21:57.578Z,933.94
2018-07-28T03:22:57.555Z,933.94
2018-07-28T03:23:57.600Z,933.93
2018-07-28T03:24:57.677Z,933.94
2018-07-28T03:25:57.711Z,933.92
2018-07-28T03:26:57.598Z,933.91
2018-07-28T03:27:57.612Z,933.96
2018-07-28T03:28:57.745Z,933.99
2018-07-28T03:29:57.683Z,933.96
2018-07-28T03:30:57.784Z,933.97
2018-07-28T03:31:57.683Z,933.98
2018-07-28T03:32:57.685Z,933.98
2018-07-28T03:33:57.811Z,934.00
2018-07-28T03:34:57.696Z,934.01
2018-07-28T03:35:57.894Z,934.00
2018-07-28T03:36:57.844Z,934.00
2018-07-28T03:37:57.736Z,934.01
2018-07-28T03:38:57.749Z,933.99
2018-07-28T03:39:57.774Z,934.02
2018-07-28T03:40:57.922Z,934.02
2018-07-28T03:41:57.915Z,934.04
2018-07-28T03:42:57.917Z,934.01
2018-07-28T03:43:57.804Z,933.99
2018-07-28T03:44:57.858Z,933.96
2018-07-28T03:45:58.009Z,933.98
2018-07-28T03:46:57.972Z,933.96
2018-07-28T03:47:57.912Z,933.92
2018-07-28T03:48:57.877Z,933.93
2018-07-28T03:49:57.979Z,933.87
2018-07-28T03:50:57.899Z,933.88
2018-07-28T03:51:57.895Z,933.87
2018-07-28T03:52:57.909Z,933.85
2018-07-28T03:53:57.939Z,933.84
2018-07-28T03:54:58.055Z,933.85
2018-07-28T03:55:57.957Z,933.82
2018-07-28T03:56:57.981Z,933.84
2018-07-28T03:57:57.985Z,933.82
2018-07-28T03:58:57.998Z,933.81
2018-07-28T03:59:58.102Z,933.80
2018-07-28T04:00:58.018Z,933.79
2018-07-28T04:01:58.157Z,933.82
2018-07-28T04:02:58.168Z,933.78
2018-07-28T04:03:58.052Z,933.82
2018-07-28T04:04:58.220Z,933.80
2018-07-28T04:05:58.091Z,933.81
2018-07-28T04:06:58.215Z,933.76
2018-07-28T04:07:58.122Z,933.78
2018-07-28T04:08:58.114Z,933.76
2018-07-28T04:09:58.280Z,933.76
2018-07-28T04:10:58.149Z,933.76
2018-07-28T04:11:58.164Z,933.71
2018-07-28T04:12:58.288Z,933.71
2018-07-28T04:13:58.176Z,933.72
2018-07-28T04:14:58.413Z,933.74
2018-07-28T04:15:58.214Z,933.73
2018-07-28T04:16:58.341Z,933.71
2018-07-28T04:17:58.242Z,933.72
2018-07-28T04:18:58.290Z,933.73
2018-07-28T04:19:58.405Z,933.73
2018-07-28T04:20:58.270Z,933.69
2018-07-28T04:21:58.283Z,933.71
2018-07-28T04:22:58.318Z,933.65
2018-07-28T04:23:58.286Z,933.66
2018-07-28T04:24:58.319Z,933.65
2018-07-28T04:25:58.477Z,933.65
2018-07-28T04:26:58.344Z,933.66
2018-07-28T04:27:58.394Z,933.63
2018-07-28T04:28:58.358Z,933.66
2018-07-28T04:29:58.372Z,933.66
2018-07-28T04:30:58.576Z,933.69
2018-07-28T04:31:58.395Z,933.68
2018-07-28T04:32:58.429Z,933.67
2018-07-28T04:33:58.419Z,933.69
2018-07-28T04:34:58.437Z,933.69
2018-07-28T04:35:58.445Z,933.67
2018-07-28T04:36:58.602Z,933.65
2018-07-28T04:37:58.461Z,933.65
2018-07-28T04:38:58.485Z,933.66
2018-07-28T04:39:58.492Z,933.67
2018-07-28T04:40:58.505Z,933.64
2018-07-28T04:41:58.538Z,933.64
2018-07-28T04:42:58.642Z,933.67
2018-07-28T04:43:58.599Z,933.66
2018-07-28T04:44:58.556Z,933.62
2018-07-28T04:45:58.568Z,933.62
2018-07-28T04:46:58.610Z,933.59
2018-07-28T04:47:58.716Z,933.60
2018-07-28T04:48:58.778Z,933.50
2018-07-28T04:49:58.612Z,933.49
2018-07-28T04:50:58.664Z,933.48
2018-07-28T04:51:58.637Z,933.45
2018-07-28T04:52:58.648Z,933.46
2018-07-28T04:53:58.773Z,933.45
2018-07-28T04:54:58.729Z,933.45
2018-07-28T04:55:58.691Z,933.44
2018-07-28T04:56:58.713Z,933.45
2018-07-28T04:57:58.839Z,933.44
2018-07-28T04:58:58.868Z,933.42
2018-07-28T04:59:58.774Z,933.43
2018-07-28T05:00:58.759Z,933.35
2018-07-28T05:01:58.784Z,933.33
2018-07-28T05:02:58.776Z,933.27
2018-07-28T05:03:59.062Z,933.24
2018-07-28T05:04:58.804Z,933.23
2018-07-28T05:05:58.797Z,933.22
2018-07-28T05:06:58.829Z,933.25
2018-07-28T05:07:58.831Z,933.24
2018-07-28T05:08:59.121Z,933.27
2018-07-28T05:09:58.852Z,933.34
2018-07-28T05:10:58.993Z,933.31
2018-07-28T05:11:58.892Z,933.32
2018-07-28T05:12:58.895Z,933.33
2018-07-28T05:13:59.005Z,933.32
2018-07-28T05:14:58.936Z,933.32
2018-07-28T05:15:58.956Z,933.34
2018-07-28T05:16:58.954Z,933.34
2018-07-28T05:17:58.958Z,933.32
2018-07-28T05:18:59.063Z,933.33
2018-07-28T05:19:58.974Z,933.31
2018-07-28T05:20:58.988Z,933.29
2018-07-28T05:21:58.996Z,933.28
2018-07-28T05:22:59.134Z,933.28
2018-07-28T05:23:59.123Z,933.25
2018-07-28T05:24:59.078Z,933.27
2018-07-28T05:25:59.170Z,933.32
2018-07-28T05:26:59.068Z,933.36
2018-07-28T05:27:59.194Z,933.37
2018-07-28T05:28:59.234Z,933.34
2018-07-28T05:29:59.224Z,933.33
2018-07-28T05:30:59.112Z,933.33
2018-07-28T05:31:59.176Z,933.33
2018-07-28T05:32:59.147Z,933.31
2018-07-28T05:33:59.329Z,933.30
2018-07-28T05:34:59.167Z,933.29
2018-07-28T05:35:59.173Z,933.26
2018-07-28T05:36:59.315Z,933.29
2018-07-28T05:37:59.314Z,933.29
2018-07-28T05:38:59.340Z,933.34
2018-07-28T05:39:59.223Z,933.32
2018-07-28T05:40:59.353Z,933.36
2018-07-28T05:41:59.248Z,933.35
2018-07-28T05:42:59.239Z,933.32
2018-07-28T05:43:59.418Z,933.37
2018-07-28T05:44:59.397Z,933.37
2018-07-28T05:45:59.296Z,933.40
2018-07-28T05:46:59.315Z,933.39
2018-07-28T05:47:59.440Z,933.34
2018-07-28T05:48:59.480Z,933.38
2018-07-28T05:49:59.344Z,933.39
2018-07-28T05:50:59.398Z,933.39
2018-07-28T05:51:59.360Z,933.37
2018-07-28T05:52:59.359Z,933.34
2018-07-28T05:53:59.482Z,933.38
2018-07-28T05:54:59.406Z,933.37
2018-07-28T05:55:59.422Z,933.38
2018-07-28T05:56:59.426Z,933.35
2018-07-28T05:57:59.436Z,933.30
2018-07-28T05:58:59.591Z,933.30
2018-07-28T05:59:59.485Z,933.30
2018-07-28T06:00:59.588Z,933.32
2018-07-28T06:01:59.474Z,933.32
2018-07-28T06:02:59.492Z,933.35
2018-07-28T06:03:59.640Z,933.34
2018-07-28T06:04:59.523Z,933.38
2018-07-28T06:05:59.519Z,933.40
2018-07-28T06:06:59.542Z,933.35
2018-07-28T06:07:59.553Z,933.34
2018-07-28T06:08:59.682Z,933.35
2018-07-28T06:09:59.665Z,933.36
2018-07-28T06:10:59.582Z,933.38
2018-07-28T06:11:59.595Z,933.37
2018-07-28T06:12:59.603Z,933.43
2018-07-28T06:13:59.620Z,933.40
2018-07-28T06:14:59.622Z,933.41
2018-07-28T06:15:59.916Z,933.44
2018-07-28T06:16:59.780Z,933.45
2018-07-28T06:17:59.674Z,933.44
2018-07-28T06:18:59.719Z,933.46
2018-07-28T06:19:59.723Z,933.44
2018-07-28T06:20:59.922Z,933.47
2018-07-28T06:21:59.828Z,933.44
2018-07-28T06:22:59.724Z,933.46
2018-07-28T06:23:59.762Z,933.47
2018-07-28T06:24:59.885Z,933.43
2018-07-28T06:25:59.815Z,933.42
2018-07-28T06:26:59.880Z,933.39
2018-07-28T06:27:59.782Z,933.37
2018-07-28T06:28:59.788Z,933.37
2018-07-28T06:29:59.813Z,933.36
2018-07-28T06:30:59.854Z,933.36
2018-07-28T06:31:59.902Z,933.39
2018-07-28T06:32:59.884Z,933.40
2018-07-28T06:33:59.840Z,933.40
2018-07-28T06:34:59.985Z,933.41
2018-07-28T06:35:59.996Z,933.43
2018-07-28T06:36:59.989Z,933.45
2018-07-28T06:37:59.913Z,933.42
2018-07-28T06:39:00.035Z,933.45
2018-07-28T06:39:59.920Z,933.44
2018-07-28T06:41:00.055Z,933.44
2018-07-28T06:41:59.992Z,933.47
2018-07-28T06:43:00.083Z,933.46
2018-07-28T06:44:00.091Z,933.49
2018-07-28T06:45:00.082Z,933.48
2018-07-28T06:46:00.001Z,933.53
2018-07-28T06:47:00.016Z,933.51
2018-07-28T06:48:00.021Z,933.48
2018-07-28T06:49:00.149Z,933.48
2018-07-28T06:50:00.144Z,933.48
2018-07-28T06:51:00.049Z,933.48
2018-07-28T06:52:00.076Z,933.46
2018-07-28T06:53:00.076Z,933.44
2018-07-28T06:54:00.081Z,933.47
2018-07-28T06:55:00.195Z,933.45
2018-07-28T06:56:00.121Z,933.49
2018-07-28T06:57:00.116Z,933.48
2018-07-28T06:58:00.143Z,933.50
2018-07-28T06:59:00.264Z,933.45
2018-07-28T07:00:00.290Z,933.44
2018-07-28T07:01:00.287Z,933.47
2018-07-28T07:02:00.298Z,933.47
2018-07-28T07:03:00.188Z,933.47
2018-07-28T07:04:00.324Z,933.45
2018-07-28T07:05:00.302Z,933.41
2018-07-28T07:06:00.211Z,933.47
2018-07-28T07:07:00.223Z,933.44
2018-07-28T07:08:00.233Z,933.39
2018-07-28T07:09:00.260Z,933.39
2018-07-28T07:10:00.404Z,933.40
2018-07-28T07:11:00.285Z,933.38
2018-07-28T07:12:00.331Z,933.36
2018-07-28T07:13:00.428Z,933.35
2018-07-28T07:14:00.305Z,933.37
2018-07-28T07:15:00.486Z,933.34
2018-07-28T07:16:00.335Z,933.31
2018-07-28T07:17:00.391Z,933.33
2018-07-28T07:18:00.362Z,933.28
2018-07-28T07:19:00.356Z,933.29
2018-07-28T07:20:00.502Z,933.28
2018-07-28T07:21:00.591Z,933.24
2018-07-28T07:22:00.413Z,933.25
2018-07-28T07:23:00.430Z,933.25
2018-07-28T07:24:00.428Z,933.25
2018-07-28T07:25:00.437Z,933.26
2018-07-28T07:26:00.569Z,933.26
2018-07-28T07:27:00.454Z,933.27
2018-07-28T07:28:00.504Z,933.27
2018-07-28T07:29:00.529Z,933.27
2018-07-28T07:30:00.505Z,933.28
2018-07-28T07:31:00.514Z,933.29
2018-07-28T07:32:00.667Z,933.30
2018-07-28T07:33:00.529Z,933.28
2018-07-28T07:34:00.531Z,933.29
2018-07-28T07:35:00.580Z,933.30
2018-07-28T07:36:00.598Z,933.29
2018-07-28T07:37:00.585Z,933.24
2018-07-28T07:38:00.687Z,933.22
2018-07-28T07:39:00.590Z,933.24
2018-07-28T07:40:00.728Z,933.22
2018-07-28T07:41:00.741Z,933.18
2018-07-28T07:42:00.632Z,933.16
2018-07-28T07:43:00.799Z,933.14
2018-07-28T07:44:00.650Z,933.11
2018-07-28T07:45:00.671Z,933.11
2018-07-28T07:46:00.693Z,933.11
2018-07-28T07:47:00.701Z,933.10
2018-07-28T07:48:00.712Z,933.08
2018-07-28T07:49:00.770Z,933.07
2018-07-28T07:50:00.743Z,933.10
2018-07-28T07:51:00.883Z,933.10
2018-07-28T07:52:00.741Z,933.11
2018-07-28T07:53:00.879Z,933.07
2018-07-28T07:54:00.945Z,933.10
2018-07-28T07:55:00.777Z,933.08
2018-07-28T07:56:00.939Z,933.08
2018-07-28T07:57:00.804Z,933.09
2018-07-28T07:58:00.820Z,933.06
2018-07-28T07:59:00.835Z,933.04
2018-07-28T08:00:00.827Z,933.03
2018-07-28T08:01:00.985Z,933.01
2018-07-28T08:02:00.853Z,933.03
2018-07-28T08:03:00.870Z,933.03
2018-07-28T08:04:00.882Z,933.04
2018-07-28T08:05:00.890Z,933.03
2018-07-28T08:06:00.944Z,933.05
2018-07-28T08:07:01.067Z,933.01
2018-07-28T08:08:00.928Z,933.01
2018-07-28T08:09:00.949Z,933.03
2018-07-28T08:10:00.953Z,933.03
2018-07-28T08:11:01.083Z,932.99
2018-07-28T08:12:01.054Z,933.01
2018-07-28T08:13:00.977Z,933.01
2018-07-28T08:14:00.998Z,932.99
2018-07-28T08:15:01.283Z,932.98
2018-07-28T08:16:01.138Z,933.05
2018-07-28T08:17:01.066Z,933.03
2018-07-28T08:18:01.034Z,933.03
2018-07-28T08:19:01.049Z,933.02
2018-07-28T08:20:01.225Z,933.03
2018-07-28T08:21:01.207Z,933.05
2018-07-28T08:22:01.081Z,933.04
2018-07-28T08:23:01.105Z,932.99
2018-07-28T08:24:01.116Z,933.05
2018-07-28T08:25:01.394Z,933.05
2018-07-28T08:26:01.138Z,933.07
2018-07-28T08:27:01.133Z,933.07
2018-07-28T08:28:01.281Z,933.07
2018-07-28T08:29:01.182Z,933.06
2018-07-28T08:30:01.286Z,933.05
2018-07-28T08:31:01.192Z,933.09
2018-07-28T08:32:01.321Z,933.07
2018-07-28T08:33:01.224Z,933.11
2018-07-28T08:34:01.220Z,933.14
2018-07-28T08:35:01.333Z,933.17
2018-07-28T08:36:01.370Z,933.20
2018-07-28T08:37:01.272Z,933.22
2018-07-28T08:38:01.268Z,933.24
2018-07-28T08:39:01.327Z,933.23
2018-07-28T08:40:01.587Z,933.25
2018-07-28T08:41:01.305Z,933.27
2018-07-28T08:42:01.442Z,933.26
2018-07-28T08:43:01.339Z,933.30
2018-07-28T08:44:01.349Z,933.29
2018-07-28T08:45:01.460Z,933.31
2018-07-28T08:46:01.361Z,933.34
2018-07-28T08:47:01.394Z,933.33
2018-07-28T08:48:01.387Z,933.33
2018-07-28T08:49:01.568Z,933.33
2018-07-28T08:50:01.515Z,933.35
2018-07-28T08:51:01.419Z,933.35
2018-07-28T08:52:01.438Z,933.31
2018-07-28T08:53:01.454Z,933.38
2018-07-28T08:54:01.447Z,933.37
2018-07-28T08:55:01.608Z,933.41
2018-07-28T08:56:01.621Z,933.41
2018-07-28T08:57:01.479Z,933.40
2018-07-28T08:58:01.492Z,933.46
2018-07-28T08:59:01.512Z,933.43
2018-07-28T09:00:01.712Z,933.43
2018-07-28T09:01:01.535Z,933.42
2018-07-28T09:02:01.539Z,933.42
2018-07-28T09:03:01.560Z,933.42
2018-07-28T09:04:01.697Z,933.44
2018-07-28T09:05:01.739Z,933.44
2018-07-28T09:06:01.640Z,933.45
2018-07-28T09:07:01.725Z,933.46
2018-07-28T09:08:01.626Z,933.49
2018-07-28T09:09:01.640Z,933.49
2018-07-28T09:10:01.763Z,933.52
2018-07-28T09:11:01.844Z,933.53
2018-07-28T09:12:01.669Z,933.57
2018-07-28T09:13:01.803Z,933.59
2018-07-28T09:14:01.684Z,933.60
2018-07-28T09:15:01.819Z,933.59
2018-07-28T09:16:01.727Z,933.61
2018-07-28T09:17:01.875Z,933.63
2018-07-28T09:18:01.810Z,933.59
2018-07-28T09:19:01.744Z,933.59
2018-07-28T09:20:01.755Z,933.61
2018-07-28T09:21:01.813Z,933.60
2018-07-28T09:22:01.824Z,933.63
2018-07-28T09:23:01.880Z,933.62
2018-07-28T09:24:01.804Z,933.64
2018-07-28T09:25:01.855Z,933.64
2018-07-28T09:26:01.815Z,933.69
2018-07-28T09:27:01.956Z,933.68
2018-07-28T09:28:01.849Z,933.72
2018-07-28T09:29:01.952Z,933.76
2018-07-28T09:30:01.855Z,933.74
2018-07-28T09:31:01.887Z,933.70
2018-07-28T09:32:02.012Z,933.69
2018-07-28T09:33:02.033Z,933.70
2018-07-28T09:34:02.021Z,933.71
2018-07-28T09:35:01.974Z,933.71
2018-07-28T09:36:01.926Z,933.76
2018-07-28T09:37:02.064Z,933.77
2018-07-28T09:38:01.965Z,933.78
2018-07-28T09:39:02.070Z,933.81
2018-07-28T09:40:02.020Z,933.83
2018-07-28T09:41:01.993Z,933.85
2018-07-28T09:42:02.020Z,933.87
2018-07-28T09:43:02.025Z,933.89
2018-07-28T09:44:02.181Z,933.92
2018-07-28T09:45:02.047Z,933.92
2018-07-28T09:46:02.042Z,933.91
2018-07-28T09:47:02.093Z,933.93
2018-07-28T09:48:02.197Z,933.94
2018-07-28T09:49:02.151Z,933.94
2018-07-28T09:50:02.103Z,933.93
2018-07-28T09:51:02.104Z,933.93
2018-07-28T09:52:02.129Z,933.95
2018-07-28T09:53:02.244Z,933.97
2018-07-28T09:54:02.141Z,934.03
2018-07-28T09:55:02.152Z,934.05
2018-07-28T09:56:02.171Z,934.05
2018-07-28T09:57:02.199Z,934.03
2018-07-28T09:58:02.357Z,934.02
2018-07-28T09:59:02.320Z,934.07
2018-07-28T10:00:02.221Z,934.05
2018-07-28T10:01:02.218Z,934.08
2018-07-28T10:02:02.236Z,934.12
2018-07-28T10:03:02.372Z,934.10
2018-07-28T10:04:02.352Z,934.13
2018-07-28T10:05:02.269Z,934.18
2018-07-28T10:06:02.275Z,934.14
2018-07-28T10:07:02.300Z,934.17
2018-07-28T10:08:02.307Z,934.17
2018-07-28T10:09:02.329Z,934.13
2018-07-28T10:10:02.476Z,934.14
2018-07-28T10:11:02.343Z,934.12
2018-07-28T10:12:02.474Z,934.14
2018-07-28T10:13:02.349Z,934.11
2018-07-28T10:14:02.386Z,934.15
2018-07-28T10:15:02.527Z,934.19
2018-07-28T10:16:02.400Z,934.16
2018-07-28T10:17:02.536Z,934.19
2018-07-28T10:18:02.412Z,934.17
2018-07-28T10:19:02.442Z,934.19
2018-07-28T10:20:02.569Z,934.20
2018-07-28T10:21:02.506Z,934.23
2018-07-28T10:22:02.486Z,934.23
2018-07-28T10:23:02.500Z,934.30
2018-07-28T10:24:02.505Z,934.26
2018-07-28T10:25:02.555Z,934.24
2018-07-28T10:26:02.709Z,934.24
2018-07-28T10:27:02.530Z,934.23
2018-07-28T10:28:02.547Z,934.21
2018-07-28T10:29:02.597Z,934.22
2018-07-28T10:30:02.614Z,934.25
2018-07-28T10:31:02.813Z,934.27
2018-07-28T10:32:02.603Z,934.27
2018-07-28T10:33:02.618Z,934.27
2018-07-28T10:34:02.636Z,934.26
2018-07-28T10:35:02.645Z,934.23
2018-07-28T10:36:02.766Z,934.28
2018-07-28T10:37:02.796Z,934.28
2018-07-28T10:38:02.803Z,934.27
2018-07-28T10:39:02.701Z,934.24
2018-07-28T10:40:02.838Z,934.12
2018-07-28T10:41:03.003Z,934.14
2018-07-28T10:42:02.736Z,934.18
2018-07-28T10:43:02.769Z,934.15
2018-07-28T10:44:02.780Z,934.14
2018-07-28T10:45:02.778Z,934.14
2018-07-28T10:46:02.951Z,934.15
2018-07-28T10:47:02.867Z,934.18
2018-07-28T10:48:02.843Z,934.21
2018-07-28T10:49:02.852Z,934.25
2018-07-28T10:50:02.872Z,934.27
2018-07-28T10:51:03.030Z,934.32
2018-07-28T10:52:02.907Z,934.26
2018-07-28T10:53:02.898Z,934.27
2018-07-28T10:54:02.967Z,934.27
2018-07-28T10:55:02.947Z,934.31
2018-07-28T10:56:02.972Z,934.33
2018-07-28T10:57:03.128Z,934.36
2018-07-28T10:58:02.998Z,934.39
2018-07-28T10:59:03.025Z,934.38
2018-07-28T11:00:03.094Z,934.38
2018-07-28T11:01:03.164Z,934.40
2018-07-28T11:02:03.247Z,934.41
2018-07-28T11:03:03.069Z,934.49
2018-07-28T11:04:03.211Z,934.48
2018-07-28T11:05:03.103Z,934.48
2018-07-28T11:06:03.248Z,934.53
2018-07-28T11:07:03.289Z,934.53
2018-07-28T11:08:03.280Z,934.54
2018-07-28T11:09:03.327Z,934.57
2018-07-28T11:10:03.234Z,934.56
2018-07-28T11:11:03.332Z,934.55
2018-07-28T11:12:03.503Z,934.57
2018-07-28T11:13:03.245Z,934.56
2018-07-28T11:14:03.387Z,934.59
2018-07-28T11:15:03.276Z,934.56
2018-07-28T11:16:03.295Z,934.56
2018-07-28T11:17:03.465Z,934.59
2018-07-28T11:18:03.458Z,934.57
2018-07-28T11:19:03.553Z,934.59
2018-07-28T11:20:03.498Z,934.60
2018-07-28T11:21:03.519Z,934.61
2018-07-28T11:22:03.552Z,934.58
2018-07-28T11:23:03.554Z,934.61
2018-07-28T11:24:03.574Z,934.60
2018-07-28T11:25:03.464Z,934.62
2018-07-28T11:26:03.624Z,934.66
2018-07-28T11:27:03.724Z,934.65
2018-07-28T11:28:03.525Z,934.70
2018-07-28T11:29:03.535Z,934.68
2018-07-28T11:30:03.684Z,934.70
2018-07-28T11:31:03.701Z,934.68
2018-07-28T11:32:03.892Z,934.70
2018-07-28T11:33:03.619Z,934.68
2018-07-28T11:34:03.757Z,934.68
2018-07-28T11:35:03.650Z,934.70
2018-07-28T11:36:03.666Z,934.70
2018-07-28T11:37:03.963Z,934.71
2018-07-28T11:38:03.837Z,934.69
2018-07-28T11:39:03.729Z,934.70
2018-07-28T11:40:03.872Z,934.66
2018-07-28T11:41:03.894Z,934.66
2018-07-28T11:42:04.008Z,934.65
2018-07-28T11:43:03.810Z,934.67
2018-07-28T11:44:03.948Z,934.68
2018-07-28T11:45:03.838Z,934.68
2018-07-28T11:46:03.908Z,934.67
2018-07-28T11:47:04.017Z,934.68
2018-07-28T11:48:03.949Z,934.71
2018-07-28T11:49:03.922Z,934.67
2018-07-28T11:50:03.984Z,934.67
2018-07-28T11:51:03.997Z,934.69
2018-07-28T11:52:04.121Z,934.73
2018-07-28T11:53:03.997Z,934.70
2018-07-28T11:54:04.017Z,934.74
2018-07-28T11:55:04.037Z,934.76
2018-07-28T11:56:04.183Z,934.75
2018-07-28T11:57:04.218Z,934.79
2018-07-28T11:58:04.240Z,934.79
2018-07-28T11:59:04.115Z,934.80
2018-07-28T12:00:04.174Z,934.78
2018-07-28T12:01:04.152Z,934.79
2018-07-28T12:02:04.409Z,934.79
2018-07-28T12:03:04.321Z,934.84
2018-07-28T12:04:04.344Z,934.85
2018-07-28T12:05:04.238Z,934.85
2018-07-28T12:06:04.378Z,934.85
2018-07-28T12:07:04.497Z,934.87
2018-07-28T12:08:04.292Z,934.86
2018-07-28T12:09:04.308Z,934.84
2018-07-28T12:10:04.322Z,934.89
2018-07-28T12:11:04.346Z,934.85
2018-07-28T12:12:04.644Z,934.91
2018-07-28T12:13:04.387Z,934.85
2018-07-28T12:14:04.524Z,934.85
2018-07-28T12:15:04.412Z,934.84
2018-07-28T12:16:04.433Z,934.92
2018-07-28T12:17:04.728Z,934.91
2018-07-28T12:18:04.505Z,934.92
2018-07-28T12:19:04.617Z,934.93
2018-07-28T12:20:04.641Z,934.95
2018-07-28T12:21:04.654Z,934.97
2018-07-28T12:22:04.700Z,935.02
2018-07-28T12:23:04.598Z,934.97
2018-07-28T12:24:04.675Z,934.97
2018-07-28T12:25:04.730Z,934.98
2018-07-28T12:26:04.739Z,934.97
2018-07-28T12:27:04.908Z,934.94
2018-07-28T12:28:04.653Z,934.99
2018-07-28T12:29:04.792Z,935.02
2018-07-28T12:30:04.808Z,935.00